Latest Weather Observations for Gannett Cay

IDQ60801

Issued at 2:35 am EST Sunday 26 October 2014 (issued every 30 minutes, with the page automatically refreshed every 10 minutes)

About weather observations | Map of weather stations | Latest weather observations for QLD | Other Formats
Station Details ID: 200831 Name: GANNET CAY Lat: -21.98 Lon: 152.47 Height: 2.3 m
Data from the previous 72 hours. | See also: Recent months for locations in Queensland
Date/Time
EST
Temp
°C
App
Temp
°C
Dew
Point
Rel
Hum
%
Delta-T
°C
Wind Press
QNH
hPa
Press
MSL
hPa
Rain
since 9 am
mm
Dir
 
Spd
km/h
Gust
km/h
Spd
kts
Gust
kts
26/02:26am 22.7 - - - - NE 24 - 13 - - 1016.5 -
26/01:26am 22.6 - - - - NE 24 - 13 - - 1016.9 -
26/12:26am 22.7 - - - - ENE 19 - 10 - - 1018.0 -
 
Date/Time
EST
Temp
°C
App
Temp
°C
Dew
Point
Rel
Hum
%
Delta-T
°C
Wind Press
QNH
hPa
Press
MSL
hPa
Rain
since 9 am
mm
Dir
 
Spd
km/h
Gust
km/h
Spd
kts
Gust
kts
25/11:26pm 22.6 - - - - ENE 19 - 10 - - 1018.6 -
25/10:26pm 22.7 - - - - ENE 19 - 10 - - 1019.0 -
25/09:26pm 22.8 - - - - ENE 17 - 9 - - 1019.1 -
25/08:26pm 22.8 - - - - NE 19 - 10 - - 1018.8 -
25/07:26pm 22.7 - - - - ENE 19 - 10 - - 1018.4 -
25/06:26pm 22.8 - - - - ENE 20 - 11 - - 1018.2 -
25/05:26pm 23.3 - - - - E 20 - 11 - - 1017.5 -
25/02:26pm 23.5 - - - - ESE 22 - 12 - - 1017.3 -
25/02:00pm 23.3 - - - - ESE 22 28 12 15 1017.6 - -
25/01:30pm 23.4 - - - - ESE 22 28 12 15 1017.9 - -
25/01:26pm 23.3 - - - - ESE 20 - 11 - - 1017.9 -
25/01:00pm 23.5 - - - - ESE 20 26 11 14 1018.1 - -
25/12:30pm 23.4 - - - - ESE 19 24 10 13 1018.6 - -
25/12:26pm 23.5 - - - - SE 19 - 10 - - 1018.8 -
25/12:00pm 23.3 - - - - ESE 19 20 10 11 1019.1 - -
25/11:30am 23.2 - - - - ESE 19 24 10 13 1019.6 - -
25/11:26am 23.3 - - - - ESE 20 - 11 - - 1019.7 -
25/11:00am 23.2 - - - - ESE 20 24 11 13 1019.8 - -
25/10:30am 23.2 - - - - ESE 19 22 10 12 1020.1 - -
25/10:26am 23.2 - - - - ESE 20 - 11 - - 1020.2 -
25/10:00am 23.3 - - - - E 19 22 10 12 1020.3 - -
25/09:30am 23.4 - - - - E 17 20 9 11 1020.3 - -
25/09:26am 23.2 - - - - E 17 - 9 - - 1020.4 -
25/09:00am 22.8 - - - - ENE 17 19 9 10 1020.1 - -
25/08:30am 22.9 - - - - ENE 15 20 8 11 1020.3 - -
25/08:26am 22.8 - - - - ENE 15 - 8 - - 1020.4 -
25/08:00am 22.8 - - - - ENE 17 19 9 10 1020.3 - -
25/07:30am 23.1 - - - - E 19 22 10 12 1020.2 - -
25/07:26am 22.9 - - - - E 20 - 11 - - 1020.3 -
25/07:00am 22.9 - - - - E 22 28 12 15 1020.0 - -
25/06:30am 22.6 - - - - ENE 22 26 12 14 1019.7 - -
25/06:26am 22.7 - - - - E 24 - 13 - - 1019.7 -
25/06:00am 22.8 - - - - ENE 20 26 11 14 1019.4 - -
25/05:30am 22.5 - - - - ENE 19 24 10 13 1019.2 - -
25/05:26am 22.5 - - - - ENE 19 - 10 - - 1019.3 -
25/05:00am 22.4 - - - - ENE 20 24 11 13 1019.0 - -
25/04:30am 22.4 - - - - ENE 24 28 13 15 1018.7 - -
25/04:26am 22.4 - - - - ENE 24 - 13 - - 1018.8 -
25/04:00am 22.4 - - - - E 20 24 11 13 1018.6 - -
25/03:30am 22.4 - - - - E 22 28 12 15 1018.5 - -
25/03:26am 22.5 - - - - ENE 24 - 13 - - 1018.5 -
25/03:00am 22.4 - - - - ENE 22 28 12 15 1018.5 - -
25/02:30am 22.5 - - - - ENE 22 26 12 14 1018.4 - -
25/02:26am 22.5 - - - - ENE 22 - 12 - - 1018.5 -
25/02:00am 22.5 - - - - ENE 20 24 11 13 1018.5 - -
25/01:30am 22.6 - - - - E 19 24 10 13 1018.7 - -
25/01:26am 22.6 - - - - E 19 - 10 - - 1018.9 -
25/01:00am 22.6 - - - - E 19 22 10 12 1019.0 - -
25/12:30am 22.6 - - - - E 20 24 11 13 1019.5 - -
25/12:26am 22.7 - - - - E 20 - 11 - - 1019.7 -
25/12:00am 22.8 - - - - E 22 24 12 13 1019.8 - -
 
Date/Time
EST
Temp
°C
App
Temp
°C
Dew
Point
Rel
Hum
%
Delta-T
°C
Wind Press
QNH
hPa
Press
MSL
hPa
Rain
since 9 am
mm
Dir
 
Spd
km/h
Gust
km/h
Spd
kts
Gust
kts
24/11:30pm 22.8 - - - - E 24 28 13 15 1020.2 - -
24/11:26pm 22.8 - - - - E 24 - 13 - - 1020.3 -
24/11:00pm 22.9 - - - - E 28 32 15 17 1020.4 - -
24/10:30pm 22.9 - - - - E 32 35 17 19 1020.4 - -
24/10:26pm 22.9 - - - - E 30 - 16 - - 1020.5 -
24/10:00pm 22.9 - - - - E 32 35 17 19 1020.3 - -
24/09:30pm 23.0 - - - - E 30 33 16 18 1020.4 - -
24/09:26pm 23.1 - - - - E 30 - 16 - - 1020.5 -
24/09:00pm 23.1 - - - - E 32 35 17 19 1020.5 - -
24/08:30pm 22.9 - - - - E 28 32 15 17 1020.2 - -
24/08:26pm 23.0 - - - - E 28 - 15 - - 1020.3 -
24/08:00pm 22.9 - - - - E 32 35 17 19 1019.8 - -
24/07:30pm 23.0 - - - - ESE 33 37 18 20 1019.6 - -
24/07:26pm 23.0 - - - - ESE 33 - 18 - - 1019.7 -
24/07:00pm 23.1 - - - - E 32 37 17 20 1019.3 - -
24/06:30pm 23.0 - - - - ESE 30 35 16 19 1019.1 - -
24/06:26pm 22.9 - - - - ESE 30 - 16 - - 1019.2 -
24/06:00pm 23.0 - - - - ESE 28 32 15 17 1018.9 - -
24/05:30pm 23.1 - - - - ESE 32 35 17 19 1018.6 - -
24/05:26pm 23.2 - - - - ESE 32 - 17 - - 1018.7 -
24/05:00pm 23.3 - - - - ESE 32 37 17 20 1018.2 - -
24/04:30pm 23.4 - - - - SE 32 35 17 19 1018.0 - -
24/04:26pm 23.5 - - - - ESE 32 - 17 - - 1018.1 -
24/04:00pm 23.6 - - - - ESE 30 33 16 18 1018.1 - -
24/03:30pm 23.5 - - - - ESE 26 30 14 16 1018.1 - -
24/03:26pm 23.4 - - - - E 24 - 13 - - 1018.2 -
24/03:00pm 23.7 - - - - ESE 20 26 11 14 1018.2 - -
24/02:30pm 23.7 - - - - SE 20 24 11 13 1018.4 - -
24/02:26pm 23.7 - - - - SE 22 - 12 - - 1018.5 -
24/02:00pm 23.4 - - - - SE 26 30 14 16 1018.7 - -
24/01:30pm 23.2 - - - - SE 28 33 15 18 1019.0 - -
24/01:26pm 23.5 - - - - SE 26 - 14 - - 1019.1 -
24/01:00pm 23.6 - - - - ESE 24 28 13 15 1019.3 - -
24/12:30pm 23.6 - - - - ESE 24 28 13 15 1019.6 - -
24/12:26pm 23.6 - - - - ESE 24 - 13 - - 1019.7 -
24/12:00pm 23.6 - - - - ESE 20 26 11 14 1019.9 - -
24/11:30am 23.4 - - - - ESE 22 26 12 14 1020.0 - -
24/11:26am 23.5 - - - - ESE 22 - 12 - - 1020.0 -
24/11:00am 23.3 - - - - ESE 24 30 13 16 1020.1 - -
24/10:30am 22.9 - - - - SE 28 32 15 17 1020.0 - -
24/10:26am 22.8 - - - - SE 28 - 15 - - 1020.2 -
24/10:00am 22.7 - - - - SE 28 32 15 17 1020.3 - -
24/09:30am 22.9 - - - - ESE 28 33 15 18 1020.2 - -
24/09:26am 22.8 - - - - ESE 26 - 14 - - 1020.3 -
24/09:00am 22.8 - - - - ESE 26 30 14 16 1020.4 - -
24/08:30am 22.6 - - - - SE 24 30 13 16 1020.6 - -
24/08:26am 22.6 - - - - SE 26 - 14 - - 1020.7 -
24/08:00am 22.5 - - - - SE 24 28 13 15 1020.5 - -
24/07:30am 22.4 - - - - SE 22 26 12 14 1020.3 - -
24/07:26am 22.4 - - - - SE 22 - 12 - - 1020.3 -
24/07:00am 22.4 - - - - SE 22 26 12 14 1020.0 - -
24/06:30am 22.2 - - - - SE 19 24 10 13 1019.8 - -
24/06:26am 22.2 - - - - SE 19 - 10 - - 1019.8 -
24/06:00am 22.2 - - - - ESE 19 22 10 12 1019.3 - -
24/05:30am 21.9 - - - - SE 17 20 9 11 1019.1 - -
24/05:26am 21.9 - - - - SE 17 - 9 - - 1019.2 -
24/05:00am 21.8 - - - - ESE 17 22 9 12 1018.6 - -
24/04:30am 21.9 - - - - ESE 17 20 9 11 1018.4 - -
24/04:26am 21.8 - - - - ESE 17 - 9 - - 1018.5 -
24/04:00am 21.8 - - - - E 17 20 9 11 1018.1 - -
24/03:30am 21.8 - - - - ESE 15 20 8 11 1018.4 - -
24/03:26am 21.8 - - - - ESE 15 - 8 - - 1018.4 -
24/03:00am 21.9 - - - - ESE 15 19 8 10 1018.6 - -
24/02:30am 21.9 - - - - E 19 22 10 12 1018.2 - -
24/02:26am 21.9 - - - - E 19 - 10 - - 1018.3 -
24/02:00am 22.0 - - - - ESE 19 20 10 11 1018.4 - -
24/01:30am 22.1 - - - - E 17 22 9 12 1018.7 - -
24/01:26am 22.0 - - - - E 17 - 9 - - 1018.9 -
24/01:00am 22.2 - - - - E 19 24 10 13 1019.2 - -
24/12:30am 22.3 - - - - E 20 24 11 13 1019.4 - -
24/12:26am 22.3 - - - - E 19 - 10 - - 1019.5 -
24/12:00am 22.3 - - - - E 20 24 11 13 1019.6 - -
 
Date/Time
EST
Temp
°C
App
Temp
°C
Dew
Point
Rel
Hum
%
Delta-T
°C
Wind Press
QNH
hPa
Press
MSL
hPa
Rain
since 9 am
mm
Dir
 
Spd
km/h
Gust
km/h
Spd
kts
Gust
kts
23/11:30pm 22.5 - - - - E 22 26 12 14 1019.9 - -
23/11:26pm 22.6 - - - - E 22 - 12 - - 1020.0 -
23/11:00pm 22.6 - - - - E 22 26 12 14 1020.0 - -
23/10:30pm 22.6 - - - - E 20 26 11 14 1020.0 - -
23/10:26pm 22.7 - - - - E 20 - 11 - - 1020.1 -
23/10:00pm 22.6 - - - - E 22 24 12 13 1019.7 - -
23/09:30pm 22.5 - - - - E 26 30 14 16 1019.7 - -
23/09:26pm 22.6 - - - - E 24 - 13 - - 1019.8 -
23/09:00pm 22.5 - - - - ESE 24 28 13 15 1019.8 - -
23/08:30pm 22.5 - - - - ESE 24 28 13 15 1019.5 - -
23/08:26pm 22.5 - - - - SE 26 - 14 - - 1019.6 -
23/08:00pm 22.4 - - - - ESE 24 30 13 16 1019.2 - -
23/07:30pm 22.5 - - - - ESE 24 28 13 15 1018.8 - -
23/07:26pm 22.5 - - - - ESE 22 - 12 - - 1018.9 -
23/07:00pm 22.5 - - - - ESE 24 28 13 15 1018.6 - -
23/06:30pm 22.4 - - - - ESE 26 30 14 16 1018.3 - -
23/06:26pm 22.4 - - - - ESE 26 - 14 - - 1018.3 -
23/06:00pm 22.5 - - - - ESE 28 33 15 18 1018.1 - -
23/05:30pm 22.6 - - - - ESE 28 33 15 18 1017.9 - -
23/05:26pm 22.7 - - - - ESE 28 - 15 - - 1017.9 -
23/05:00pm 23.1 - - - - ESE 28 33 15 18 1017.6 - -
23/04:30pm 22.9 - - - - SE 30 32 16 17 1017.3 - -
23/04:26pm 22.9 - - - - SE 30 - 16 - - 1017.3 -
23/04:00pm 22.9 - - - - SE 30 35 16 19 1017.0 - -
23/03:30pm 22.9 - - - - SE 30 35 16 19 1017.0 - -
23/03:26pm 22.8 - - - - SE 30 - 16 - - 1017.2 -
23/03:00pm 22.9 - - - - SE 30 35 16 19 1017.1 - -
23/02:30pm 22.8 - - - - ESE 28 33 15 18 1017.2 - -
23/02:26pm 22.9 - - - - ESE 28 - 15 - - 1017.3 -
23/02:00pm 22.8 - - - - SE 30 35 16 19 1017.3 - -
23/01:30pm 22.9 - - - - ESE 30 33 16 18 1017.6 - -
23/01:26pm 22.8 - - - - ESE 30 - 16 - - 1017.7 -
23/01:00pm 22.8 - - - - ESE 28 32 15 17 1017.9 - -
23/12:30pm 22.8 - - - - ESE 28 32 15 17 1018.2 - -
23/12:26pm 22.8 - - - - ESE 28 - 15 - - 1018.3 -
23/12:00pm 22.9 - - - - ESE 30 35 16 19 1018.6 - -
23/11:30am 22.7 - - - - ESE 32 35 17 19 1019.1 - -
23/11:26am 22.7 - - - - ESE 32 - 17 - - 1019.2 -
23/10:30am 22.7 - - - - ESE 32 35 17 19 1019.6 - -
23/10:26am 22.8 - - - - ESE 32 - 17 - - 1019.6 -
23/10:00am 22.7 - - - - SE 32 35 17 19 1019.8 - -
23/09:30am 22.6 - - - - SE 32 35 17 19 1019.9 - -
23/09:26am 22.5 - - - - SE 32 - 17 - - 1020.0 -
23/09:00am 22.7 - - - - SE 32 35 17 19 1019.9 - -
23/08:30am 22.4 - - - - SE 33 39 18 21 1019.9 - -
23/08:26am 22.6 - - - - SE 33 - 18 - - 1020.0 -
23/08:00am 22.5 - - - - SE 35 41 19 22 1019.8 - -
23/07:30am 22.3 - - - - SE 35 41 19 22 1019.5 - -
23/07:26am 22.5 - - - - SE 35 - 19 - - 1019.6 -
23/07:00am 22.3 - - - - SE 37 43 20 23 1019.4 - -
23/06:30am 22.2 - - - - SE 39 44 21 24 1018.9 - -
23/06:26am 22.1 - - - - SE 39 - 21 - - 1019.0 -
23/06:00am 22.1 - - - - SE 37 43 20 23 1018.7 - -
23/05:30am 21.9 - - - - SE 39 43 21 23 1018.4 - -
23/05:26am 21.9 - - - - SE 37 - 20 - - 1018.4 -
23/05:00am 22.0 - - - - SE 39 46 21 25 1018.1 - -
23/04:30am 22.0 - - - - SE 37 41 20 22 1017.9 - -
23/04:26am 21.9 - - - - SE 37 - 20 - - 1018.0 -
23/04:00am 21.9 - - - - SE 35 39 19 21 1017.8 - -
23/03:30am 21.8 - - - - SE 35 41 19 22 1018.0 - -
23/03:26am 21.7 - - - - SE 35 - 19 - - 1018.1 -
23/03:00am 21.8 - - - - SE 35 41 19 22 1018.0 - -

Other Formats:

Comma delimited format used in spreadsheet applications
http://www.bom.gov.au/fwo/IDQ60801/IDQ60801.94379.axf

JavaScript Object Notation format (JSON) in row-major order
http://www.bom.gov.au/fwo/IDQ60801/IDQ60801.94379.json